Time;durP1;ratioP1;P1;durP2;ratioP2;P2;SDS_P1;SDS_P2;PMS_P1;PMS_P2;Temp;Humidity;BMP_temperature;BMP_pressure;BME280_temperature;BME280_humidity;BME280_pressure;Samples;Min_cycle;Max_cycle;Signal;HPM_P1;HPM_P2
2021/06/08 00:00:21;;;;;;;4.13;2.03;;;;;;;9.63;58.86;100828.47;3596608;40;20048;-56
2021/06/08 00:02:52;;;;;;;4.57;1.98;;;;;;;9.57;58.55;100825.38;3596252;40;20044;-58
2021/06/08 00:05:20;;;;;;;2.75;1.60;;;;;;;9.49;61.12;100829.31;3596457;40;20439;-59
2021/06/08 00:07:48;;;;;;;1.90;1.27;;;;;;;9.35;60.27;100823.16;3596630;40;20044;-57
2021/06/08 00:10:17;;;;;;;4.72;1.67;;;;;;;9.22;61.19;100830.88;3596771;40;20064;-62
2021/06/08 00:12:45;;;;;;;5.70;2.60;;;;;;;9.02;61.42;100821.56;3596862;40;20056;-57
2021/06/08 00:15:14;;;;;;;6.00;2.75;;;;;;;8.89;61.38;100829.25;3596283;40;20079;-54
2021/06/08 00:17:41;;;;;;;3.75;1.90;;;;;;;8.72;63.28;100824.09;3595847;39;20095;-54
2021/06/08 00:20:09;;;;;;;2.88;1.70;;;;;;;8.54;63.78;100831.16;3585156;40;20040;-58
2021/06/08 00:22:37;;;;;;;4.90;2.38;;;;;;;8.48;62.65;100835.88;3587438;40;20056;-57
2021/06/08 00:25:05;;;;;;;2.90;1.60;;;;;;;8.40;63.78;100834.53;3587443;40;20351;-52
2021/06/08 00:27:33;;;;;;;3.88;1.65;;;;;;;8.29;64.06;100838.59;3596069;40;20063;-56
2021/06/08 00:30:00;;;;;;;4.10;1.80;;;;;;;8.21;65.37;100834.63;3586995;40;20059;-56
2021/06/08 00:32:28;;;;;;;2.55;1.52;;;;;;;8.14;64.42;100835.03;3596402;40;20088;-49
2021/06/08 00:34:55;;;;;;;3.70;1.90;;;;;;;8.05;65.05;100832.91;3596368;40;20332;-51
2021/06/08 00:37:23;;;;;;;3.33;1.92;;;;;;;7.97;65.93;100830.69;3587426;40;20528;-55
2021/06/08 00:39:52;;;;;;;3.47;1.90;;;;;;;7.95;65.54;100833.38;3577840;40;20149;-55
2021/06/08 00:42:28;;;;;;;4.03;1.63;;;;;;;7.91;66.58;100839.66;3587152;40;20044;-51
2021/06/08 00:44:56;;;;;;;3.15;1.52;;;;;;;7.83;66.87;100835.75;3584662;40;20044;-57
2021/06/08 00:47:23;;;;;;;3.53;2.00;;;;;;;7.74;68.00;100823.22;3587402;40;20070;-51
2021/06/08 00:49:52;;;;;;;3.10;1.80;;;;;;;7.70;67.91;100831.19;3586940;40;20048;-54
2021/06/08 00:52:19;;;;;;;3.97;1.83;;;;;;;7.65;68.87;100821.94;3594036;40;20045;-55
2021/06/08 00:54:47;;;;;;;4.32;1.58;;;;;;;7.61;68.60;100820.41;3577904;40;20054;-52
2021/06/08 00:57:14;;;;;;;3.47;2.00;;;;;;;7.58;68.20;100824.00;3588420;40;20049;-53
2021/06/08 00:59:42;;;;;;;3.40;1.48;;;;;;;7.53;68.87;100822.53;3596027;40;20044;-52
2021/06/08 01:02:09;;;;;;;5.53;1.85;;;;;;;7.47;68.58;100820.25;3586523;40;20108;-49
2021/06/08 01:04:37;;;;;;;3.47;1.80;;;;;;;7.39;69.03;100816.25;3585000;40;20130;-50
2021/06/08 01:07:05;;;;;;;6.00;2.10;;;;;;;7.34;68.88;100818.25;3585894;40;20054;-53
2021/06/08 01:09:32;;;;;;;3.40;1.90;;;;;;;7.28;69.08;100821.16;3585864;40;20150;-49
2021/06/08 01:12:00;;;;;;;4.45;2.00;;;;;;;7.19;69.24;100822.44;3586207;40;20045;-53
2021/06/08 01:14:27;;;;;;;4.05;2.03;;;;;;;7.14;69.48;100826.19;3586224;40;20157;-55
2021/06/08 01:16:55;;;;;;;3.75;2.15;;;;;;;7.08;69.36;100827.34;3584973;40;20403;-55
2021/06/08 01:19:22;;;;;;;4.07;2.38;;;;;;;7.05;70.70;100821.44;3586138;40;20070;-50
2021/06/08 01:21:50;;;;;;;5.50;2.95;;;;;;;7.00;68.67;100819.06;3586059;40;20044;-55
2021/06/08 01:24:17;;;;;;;4.47;1.75;;;;;;;6.94;70.21;100821.94;3586024;40;20117;-55
2021/06/08 01:26:45;;;;;;;3.20;2.17;;;;;;;6.90;70.48;100821.25;3585774;40;20344;-54
2021/06/08 01:29:13;;;;;;;3.67;1.65;;;;;;;6.84;69.97;100818.94;3576174;40;20060;-56
2021/06/08 01:31:41;;;;;;;5.35;2.58;;;;;;;6.82;69.56;100819.91;3577281;40;20056;-53
2021/06/08 01:34:09;;;;;;;3.95;2.40;;;;;;;6.80;69.49;100819.16;3576971;40;20387;-55
2021/06/08 01:36:42;;;;;;;10.00;3.03;;;;;;;6.76;70.70;100815.88;3576854;40;20342;-54
2021/06/08 01:39:10;;;;;;;7.32;2.78;;;;;;;6.71;70.01;100815.25;3575503;40;20052;-54
2021/06/08 01:41:38;;;;;;;4.95;2.58;;;;;;;6.68;70.05;100816.22;3576709;40;20080;-57
2021/06/08 01:44:06;;;;;;;4.38;2.30;;;;;;;6.68;71.03;100813.59;3576807;40;20052;-50
2021/06/08 01:46:33;;;;;;;5.32;2.65;;;;;;;6.66;71.99;100817.22;3575325;40;20092;-54
2021/06/08 01:49:01;;;;;;;4.47;2.47;;;;;;;6.66;71.51;100819.81;3577148;40;20069;-55
2021/06/08 01:51:34;;;;;;;4.75;2.45;;;;;;;6.65;72.45;100820.72;3576561;40;20060;-53
2021/06/08 01:54:20;;;;;;;3.70;2.55;;;;;;;6.66;72.07;100815.44;3575417;40;20079;-54
2021/06/08 01:56:58;;;;;;;6.28;2.33;;;;;;;6.70;70.13;100823.13;3576749;40;20049;-52
2021/06/08 01:59:32;;;;;;;4.93;2.33;;;;;;;6.66;70.88;100812.84;3576338;40;20056;-57
2021/06/08 02:02:16;;;;;;;3.40;2.20;;;;;;;6.72;70.74;100814.31;3576451;40;20048;-53
2021/06/08 02:04:46;;;;;;;3.55;1.75;;;;;;;6.76;70.61;100815.88;3585361;40;20052;-54
2021/06/08 02:07:35;;;;;;;3.78;2.22;;;;;;;6.86;71.55;100817.09;3586649;40;20516;-50
2021/06/08 02:10:21;;;;;;;4.63;2.75;;;;;;;6.89;71.34;100813.53;3586598;40;20056;-52
2021/06/08 02:13:04;;;;;;;3.53;1.90;;;;;;;6.98;71.13;100812.22;3585584;40;20088;-51
2021/06/08 02:15:36;;;;;;;4.18;2.45;;;;;;;7.04;71.23;100811.94;3586690;40;20056;-51
2021/06/08 02:18:07;;;;;;;5.07;2.25;;;;;;;7.10;71.20;100814.25;3586775;40;20122;-50
2021/06/08 02:20:37;;;;;;;5.65;2.78;;;;;;;7.19;72.21;100811.19;3584719;40;20059;-56
2021/06/08 02:23:08;;;;;;;5.55;2.75;;;;;;;7.28;71.81;100807.31;3586628;40;20052;-54
2021/06/08 02:25:35;;;;;;;6.70;2.55;;;;;;;7.36;73.57;100810.38;3586609;40;20051;-51
2021/06/08 02:28:07;;;;;;;4.28;2.55;;;;;;;7.45;74.35;100815.09;3586674;40;20108;-50
2021/06/08 02:30:35;;;;;;;4.25;2.67;;;;;;;7.52;73.72;100813.91;3586755;40;20060;-49
2021/06/08 02:33:05;;;;;;;4.60;2.33;;;;;;;7.63;73.78;100818.56;3586173;40;20052;-50
2021/06/08 02:35:34;;;;;;;4.00;2.22;;;;;;;7.76;72.20;100810.97;3586840;40;20394;-53
2021/06/08 02:38:02;;;;;;;3.60;2.28;;;;;;;7.87;73.35;100812.09;3586680;40;20086;-49
2021/06/08 02:40:31;;;;;;;4.57;2.60;;;;;;;7.99;72.89;100808.03;3586755;40;20056;-54
2021/06/08 02:43:00;;;;;;;5.75;2.80;;;;;;;8.14;73.36;100806.38;3597098;40;20048;-51
2021/06/08 02:45:30;;;;;;;5.10;2.15;;;;;;;8.30;73.13;100806.38;3597169;40;20060;-52
2021/06/08 02:47:59;;;;;;;4.47;2.97;;;;;;;8.47;72.59;100808.97;3596979;40;20088;-51
2021/06/08 02:50:28;;;;;;;4.90;2.47;;;;;;;8.64;71.59;100802.81;3596685;40;20108;-57
2021/06/08 02:52:56;;;;;;;4.15;2.03;;;;;;;8.78;72.07;100800.28;3597223;40;20411;-57
2021/06/08 02:55:25;;;;;;;4.10;2.38;;;;;;;8.95;70.30;100794.97;3597328;40;20058;-55
2021/06/08 02:57:57;;;;;;;4.63;2.63;;;;;;;9.11;72.44;100792.31;3593022;40;20060;-56
2021/06/08 03:00:25;;;;;;;4.57;2.50;;;;;;;9.27;68.89;100792.31;3588012;40;20056;-55
2021/06/08 03:02:56;;;;;;;3.30;1.90;;;;;;;9.43;66.92;100797.47;3588314;40;20464;-54
2021/06/08 03:05:32;;;;;;;4.57;2.72;;;;;;;9.59;66.42;100802.63;3588042;40;20044;-57
2021/06/08 03:08:04;;;;;;;3.88;2.25;;;;;;;9.73;65.80;100800.91;3588185;40;20060;-57
2021/06/08 03:10:35;;;;;;;5.75;2.10;;;;;;;9.91;63.83;100805.94;3587749;40;20319;-51
2021/06/08 03:13:07;;;;;;;4.10;2.08;;;;;;;10.08;63.08;100802.31;3587632;40;20041;-57
2021/06/08 03:15:43;;;;;;;3.20;1.88;;;;;;;10.25;62.75;100803.00;3588049;40;20048;-50
2021/06/08 03:18:14;;;;;;;3.33;1.60;;;;;;;10.40;61.96;100803.81;3585982;40;20346;-53
2021/06/08 03:20:56;;;;;;;3.97;1.98;;;;;;;10.55;60.91;100803.78;3588175;40;20040;-58
2021/06/08 03:23:28;;;;;;;3.20;1.50;;;;;;;10.70;60.67;100801.03;3588187;40;20072;-57
2021/06/08 03:25:59;;;;;;;3.40;1.67;;;;;;;10.84;59.77;100805.38;3587585;40;20056;-57
2021/06/08 03:28:30;;;;;;;3.65;1.63;;;;;;;10.95;59.16;100795.06;3596528;40;20310;-58
2021/06/08 03:31:00;;;;;;;4.32;1.67;;;;;;;11.06;58.52;100796.97;3596900;40;20064;-52
2021/06/08 03:33:29;;;;;;;5.15;1.90;;;;;;;11.21;59.49;100797.78;3587484;40;20299;-53
2021/06/08 03:35:58;;;;;;;3.38;1.50;;;;;;;11.32;58.40;100803.13;3596458;40;20507;-57
2021/06/08 03:38:27;;;;;;;3.28;1.77;;;;;;;11.40;58.13;100800.03;3597292;40;20058;-55
2021/06/08 03:40:55;;;;;;;2.33;1.20;;;;;;;11.49;58.54;100804.66;3597000;40;20388;-58
2021/06/08 03:43:23;;;;;;;3.78;1.73;;;;;;;11.54;59.50;100813.03;3596004;40;20088;-57
2021/06/08 03:45:51;;;;;;;2.92;1.30;;;;;;;11.64;58.80;100802.78;3596665;40;20307;-57
2021/06/08 03:48:20;;;;;;;4.22;1.40;;;;;;;11.72;59.00;100808.31;3596508;40;20426;-53
2021/06/08 03:50:51;;;;;;;3.47;1.70;;;;;;;11.85;58.61;100809.19;3596693;40;20071;-57
2021/06/08 03:53:19;;;;;;;3.70;1.48;;;;;;;11.90;57.59;100804.47;3586850;40;20521;-55
2021/06/08 03:55:49;;;;;;;46.58;24.27;;;;;;;11.96;58.18;100814.56;3587635;40;20318;-56
2021/06/08 03:58:19;;;;;;;5.60;3.05;;;;;;;12.02;56.84;100814.13;3592724;40;20415;-56
2021/06/08 04:00:55;;;;;;;4.10;1.88;;;;;;;12.12;56.42;100816.13;3585542;40;20044;-53
2021/06/08 04:03:24;;;;;;;7.35;2.05;;;;;;;12.16;56.04;100815.78;3587425;40;20138;-53
2021/06/08 04:05:54;;;;;;;60.58;23.35;;;;;;;12.13;57.07;100816.00;3587402;40;20049;-56
2021/06/08 04:08:25;;;;;;;9.85;4.75;;;;;;;12.21;57.63;100812.84;3587561;40;20329;-53
2021/06/08 04:10:53;;;;;;;4.68;2.30;;;;;;;12.34;56.58;100823.31;3588108;40;20061;-54
2021/06/08 04:13:21;;;;;;;2.58;1.40;;;;;;;12.35;56.89;100814.53;3587381;40;20052;-51
2021/06/08 04:15:49;;;;;;;5.10;1.75;;;;;;;12.38;55.76;100822.97;3587502;40;20499;-58
2021/06/08 04:18:20;;;;;;;3.03;1.55;;;;;;;12.46;56.26;100825.91;3587283;40;20056;-59
2021/06/08 04:20:52;;;;;;;3.03;1.33;;;;;;;12.54;55.60;100828.00;3577986;40;20134;-52
2021/06/08 04:23:24;;;;;;;2.58;1.20;;;;;;;12.61;56.28;100825.78;3578285;40;20055;-56
2021/06/08 04:25:52;;;;;;;2.13;1.23;;;;;;;12.60;55.95;100824.09;3587364;40;20049;-54
2021/06/08 04:28:22;;;;;;;51.33;25.92;;;;;;;12.48;54.81;100824.00;3587270;40;20052;-55
2021/06/08 04:30:51;;;;;;;10.50;5.45;;;;;;;12.57;55.13;100823.34;3587532;40;20145;-51
2021/06/08 04:33:26;;;;;;;4.28;1.98;;;;;;;12.59;54.25;100839.00;3587549;40;20189;-53
2021/06/08 04:35:54;;;;;;;2.83;1.50;;;;;;;12.71;55.61;100832.88;3587519;40;20304;-57
2021/06/08 04:38:22;;;;;;;3.03;1.88;;;;;;;12.57;54.60;100828.59;3587377;40;20044;-58
2021/06/08 04:40:51;;;;;;;9.32;7.68;;;;;;;12.62;55.64;100836.16;3587108;40;20060;-57
2021/06/08 04:43:23;;;;;;;5.55;3.35;;;;;;;12.76;54.79;100837.78;3586916;40;20084;-53
2021/06/08 04:45:52;;;;;;;3.03;1.83;;;;;;;12.92;54.72;100835.75;3587612;40;20057;-52
2021/06/08 04:48:23;;;;;;;3.05;1.40;;;;;;;12.85;54.75;100833.69;3587523;40;20105;-54
2021/06/08 04:50:51;;;;;;;3.42;2.00;;;;;;;12.98;54.27;100829.22;3587065;40;20127;-51
2021/06/08 04:53:20;;;;;;;4.78;1.50;;;;;;;12.92;53.35;100830.50;3587562;40;20059;-60
2021/06/08 04:55:48;;;;;;;71.53;33.88;;;;;;;12.97;54.28;100838.06;3587371;40;20077;-56
2021/06/08 04:58:17;;;;;;;10.65;5.70;;;;;;;12.89;54.04;100838.59;3591672;40;20066;-53
2021/06/08 05:00:47;;;;;;;3.50;1.70;;;;;;;13.01;54.76;100835.09;3585515;40;20055;-53
2021/06/08 05:03:19;;;;;;;3.00;1.45;;;;;;;12.81;53.49;100833.06;3586899;40;20053;-57
2021/06/08 05:05:52;;;;;;;2.60;1.35;;;;;;;12.90;54.58;100827.13;3587032;40;20058;-53
2021/06/08 05:08:37;;;;;;;3.78;1.80;;;;;;;13.00;54.86;100833.41;3585695;40;20400;-51
2021/06/08 05:11:14;;;;;;;1.58;1.08;;;;;;;13.03;54.35;100830.56;3585269;40;20118;-57
2021/06/08 05:13:46;;;;;;;5.22;1.55;;;;;;;13.04;54.95;100836.66;3586940;40;20441;-52
2021/06/08 05:16:15;;;;;;;15.60;7.45;;;;;;;13.00;53.96;100828.16;3587301;40;20060;-52
2021/06/08 05:18:45;;;;;;;2.50;1.38;;;;;;;12.96;54.19;100836.34;3587111;40;20397;-55
2021/06/08 05:21:17;;;;;;;3.22;1.33;;;;;;;12.94;53.04;100830.38;3586745;40;20264;-52
2021/06/08 05:23:46;;;;;;;4.95;2.53;;;;;;;12.90;54.86;100834.19;3595648;40;20410;-53
2021/06/08 05:26:14;;;;;;;4.03;1.40;;;;;;;12.89;54.28;100827.25;3596020;40;20051;-48
2021/06/08 05:28:42;;;;;;;2.70;1.10;;;;;;;12.90;54.71;100824.50;3586283;40;20100;-52
2021/06/08 05:31:09;;;;;;;5.10;1.40;;;;;;;12.89;54.38;100822.84;3592875;40;20050;-54
2021/06/08 05:33:37;;;;;;;2.83;1.20;;;;;;;12.90;54.44;100831.56;3594547;40;20040;-53
2021/06/08 05:36:04;;;;;;;3.33;1.15;;;;;;;12.81;52.48;100827.81;3596116;40;20484;-53
2021/06/08 05:38:37;;;;;;;3.58;1.20;;;;;;;12.84;53.64;100824.13;3595833;40;20052;-55
2021/06/08 05:41:09;;;;;;;4.10;1.38;;;;;;;12.92;53.80;100825.25;3585082;40;20048;-54
2021/06/08 05:43:41;;;;;;;5.95;1.40;;;;;;;12.96;54.06;100824.09;3586870;40;20504;-58
2021/06/08 05:46:10;;;;;;;5.95;1.10;;;;;;;13.00;53.69;100836.03;3586732;40;20052;-57
2021/06/08 05:48:40;;;;;;;3.78;1.83;;;;;;;12.88;53.89;100838.72;3586960;40;20534;-57
2021/06/08 05:51:09;;;;;;;2.97;1.40;;;;;;;12.99;55.14;100834.34;3586634;40;20427;-53
2021/06/08 05:53:42;;;;;;;2.40;1.40;;;;;;;12.99;54.40;100836.16;3590625;40;20048;-55
2021/06/08 05:56:10;;;;;;;2.75;1.20;;;;;;;13.05;54.72;100833.06;3591979;40;20052;-54
2021/06/08 05:58:37;;;;;;;2.47;1.23;;;;;;;13.24;54.97;100833.41;3591979;40;20055;-50
2021/06/08 06:01:10;;;;;;;2.63;1.20;;;;;;;13.13;53.76;100837.75;3595568;40;20062;-55
2021/06/08 06:03:39;;;;;;;3.13;1.35;;;;;;;13.27;55.52;100832.38;3586688;40;20032;-51
2021/06/08 06:06:07;;;;;;;5.00;1.42;;;;;;;13.33;54.38;100821.41;3594820;40;20044;-58
2021/06/08 06:08:35;;;;;;;3.10;1.20;;;;;;;13.58;55.95;100836.19;3595364;40;20055;-48
2021/06/08 06:11:06;;;;;;;73.05;31.02;;;;;;;13.60;53.68;100838.69;3595793;40;20311;-54
2021/06/08 06:13:38;;;;;;;20.73;7.95;;;;;;;13.71;54.19;100838.72;3595536;40;20307;-56
2021/06/08 06:16:07;;;;;;;2.75;1.60;;;;;;;13.52;51.68;100836.63;3596086;39;20063;-53
2021/06/08 06:18:38;;;;;;;2.10;1.23;;;;;;;13.69;52.69;100841.47;3587692;40;20059;-52
2021/06/08 06:21:06;;;;;;;2.38;1.15;;;;;;;13.83;53.92;100837.78;3586871;40;20056;-50
2021/06/08 06:23:34;;;;;;;2.63;1.10;;;;;;;14.08;53.67;100842.84;3589107;40;20047;-54
2021/06/08 06:26:02;;;;;;;3.78;1.30;;;;;;;14.30;53.38;100841.19;3597473;40;20047;-54
2021/06/08 06:28:31;;;;;;;3.03;1.08;;;;;;;14.28;50.61;100835.19;3597383;40;20605;-48
2021/06/08 06:31:05;;;;;;;;;;;;;;;14.06;49.69;100849.19;3597310;40;20100;-51
2021/06/08 06:33:53;;;;;;;3.40;1.40;;;;;;;14.15;50.68;100845.84;3596220;40;19928;-50
2021/06/08 06:36:51;;;;;;;;;;;;;;;14.47;50.93;100845.09;3587752;40;20044;-47
2021/06/08 06:39:30;;;;;;;5.10;1.17;;;;;;;14.57;48.54;100841.69;3590620;40;19944;-52
2021/06/08 06:42:03;;;;;;;3.15;1.10;;;;;;;14.51;47.08;100844.78;3596845;40;20389;-49
2021/06/08 06:44:32;;;;;;;2.00;1.10;;;;;;;14.73;48.98;100843.09;3585873;40;20064;-53
2021/06/08 06:47:00;;;;;;;3.22;1.17;;;;;;;14.61;44.91;100837.00;3578837;40;20088;-57
2021/06/08 06:49:27;;;;;;;64.68;27.10;;;;;;;14.66;41.63;100836.63;3587833;40;20056;-56
2021/06/08 06:51:56;;;;;;;14.82;6.70;;;;;;;14.84;44.04;100838.63;3583293;40;20393;-53
2021/06/08 06:54:25;;;;;;;5.68;2.20;;;;;;;15.13;45.29;100838.06;3589450;40;20055;-52
2021/06/08 06:56:54;;;;;;;2.53;1.48;;;;;;;15.41;43.87;100838.44;3589001;40;20092;-51
2021/06/08 06:59:22;;;;;;;2.38;0.90;;;;;;;15.47;44.76;100836.13;3596688;40;20133;-54
2021/06/08 07:01:50;;;;;;;3.17;1.67;;;;;;;15.74;44.97;100838.28;3596924;40;20044;-54
2021/06/08 07:04:21;;;;;;;3.40;1.15;;;;;;;15.92;42.61;100835.06;3596484;40;20504;-55
2021/06/08 07:06:49;;;;;;;3.20;1.15;;;;;;;15.85;42.34;100840.84;3596592;40;20055;-53
2021/06/08 07:09:23;;;;;;;1.85;0.90;;;;;;;15.89;41.44;100841.41;3589900;40;20063;-55
2021/06/08 07:11:52;;;;;;;3.13;1.00;;;;;;;16.11;42.41;100843.06;3587599;40;20434;-58
2021/06/08 07:14:20;;;;;;;3.35;1.08;;;;;;;16.08;38.49;100838.88;3587721;40;20060;-51
2021/06/08 07:16:50;;;;;;;1.77;0.80;;;;;;;16.15;41.48;100836.56;3588286;40;20044;-54
2021/06/08 07:19:19;;;;;;;2.38;1.13;;;;;;;16.29;39.14;100840.66;3588632;40;20057;-55
2021/06/08 07:21:48;;;;;;;1.70;1.05;;;;;;;16.53;42.74;100837.69;3587797;40;20441;-54
2021/06/08 07:24:16;;;;;;;64.35;35.97;;;;;;;16.52;40.79;100836.88;3587854;40;20048;-58
2021/06/08 07:26:44;;;;;;;80.00;34.58;;;;;;;16.44;39.36;100839.31;3587805;40;20048;-55
2021/06/08 07:29:13;;;;;;;5.72;2.47;;;;;;;16.38;39.36;100839.88;3587817;40;20044;-52
2021/06/08 07:31:56;;;;;;;1.73;0.90;;;;;;;16.65;42.88;100837.44;3585504;40;20049;-54
2021/06/08 07:34:30;;;;;;;3.08;1.15;;;;;;;16.69;41.40;100837.16;3587565;40;20082;-57
2021/06/08 07:36:58;;;;;;;2.35;1.23;;;;;;;16.76;39.20;100838.31;3586056;40;20071;-50
2021/06/08 07:39:40;;;;;;;5.50;1.27;;;;;;;16.79;42.10;100836.25;3587763;40;20055;-54
2021/06/08 07:42:12;;;;;;;3.13;1.33;;;;;;;16.70;38.93;100834.38;3587714;40;20419;-56
2021/06/08 07:44:44;;;;;;;2.50;0.93;;;;;;;16.50;39.06;100837.94;3587717;40;20048;-53
2021/06/08 07:47:16;;;;;;;3.27;1.33;;;;;;;16.65;39.96;100837.44;3587575;40;20449;-52
2021/06/08 07:49:48;;;;;;;2.60;1.10;;;;;;;16.49;38.08;100838.94;3587674;40;20052;-54
2021/06/08 07:52:16;;;;;;;2.97;1.10;;;;;;;16.09;40.09;100842.34;3587568;40;20048;-54
2021/06/08 07:54:44;;;;;;;4.00;1.20;;;;;;;16.37;42.37;100839.00;3587525;40;20044;-57
2021/06/08 07:57:12;;;;;;;27.20;11.18;;;;;;;16.58;41.96;100844.22;3588575;40;20066;-57
2021/06/08 07:59:43;;;;;;;54.42;31.80;;;;;;;16.65;40.31;100836.59;3596572;40;20048;-52
2021/06/08 08:02:11;;;;;;;3.65;2.33;;;;;;;16.71;39.12;100837.84;3586335;40;20052;-54
2021/06/08 08:04:42;;;;;;;4.45;1.73;;;;;;;16.93;40.48;100826.25;3586946;40;20077;-57
2021/06/08 08:07:09;;;;;;;2.70;1.13;;;;;;;17.21;42.60;100836.03;3587638;40;20040;-56
2021/06/08 08:09:37;;;;;;;3.40;1.20;;;;;;;17.11;38.75;100825.44;3587564;40;20044;-56
2021/06/08 08:12:05;;;;;;;2.72;1.52;;;;;;;17.05;38.31;100826.00;3587569;40;20503;-53
2021/06/08 08:14:33;;;;;;;2.90;1.55;;;;;;;17.04;37.06;100824.34;3587641;40;20457;-55
2021/06/08 08:17:01;;;;;;;2.25;1.30;;;;;;;17.41;38.38;100829.75;3587495;40;20053;-55
2021/06/08 08:19:29;;;;;;;1.95;1.15;;;;;;;17.62;40.09;100821.66;3596338;40;20052;-52
2021/06/08 08:21:57;;;;;;;2.47;1.30;;;;;;;17.61;36.19;100820.00;3596476;40;20048;-51
2021/06/08 08:24:24;;;;;;;4.45;1.40;;;;;;;17.37;35.88;100820.41;3596531;40;20140;-52
2021/06/08 08:26:52;;;;;;;3.08;1.48;;;;;;;17.52;37.42;100814.69;3596106;40;20066;-56
2021/06/08 08:29:19;;;;;;;2.92;1.08;;;;;;;17.96;38.92;100821.19;3585574;40;20411;-55
2021/06/08 08:31:47;;;;;;;4.60;1.30;;;;;;;18.24;38.33;100822.06;3587314;40;20689;-60
2021/06/08 08:34:14;;;;;;;53.08;25.20;;;;;;;18.41;37.07;100823.91;3587547;40;20533;-53
2021/06/08 08:36:42;;;;;;;8.00;3.35;;;;;;;18.75;36.58;100817.22;3587363;40;20044;-56
2021/06/08 08:39:11;;;;;;;2.22;1.42;;;;;;;18.66;36.50;100809.16;3586196;40;20060;-50
2021/06/08 08:41:40;;;;;;;3.42;1.42;;;;;;;18.92;38.51;100811.94;3587307;40;20037;-52
2021/06/08 08:44:09;;;;;;;2.92;1.52;;;;;;;18.96;37.18;100806.34;3587359;40;20055;-52
2021/06/08 08:46:41;;;;;;;3.13;1.35;;;;;;;18.65;33.47;100804.81;3586823;40;20071;-53
2021/06/08 08:49:21;;;;;;;3.25;1.73;;;;;;;18.79;35.20;100797.38;3586913;40;20052;-52
2021/06/08 08:52:03;;;;;;;11.77;4.90;;;;;;;19.14;38.24;100808.00;3586920;40;20632;-53
2021/06/08 08:54:38;;;;;;;5.88;2.80;;;;;;;19.40;38.30;100807.22;3595856;40;20539;-56
2021/06/08 08:57:06;;;;;;;3.03;1.30;;;;;;;19.08;35.92;100791.84;3594764;40;20074;-55
2021/06/08 08:59:33;;;;;;;6.82;2.88;;;;;;;19.54;34.80;100795.22;3586071;40;20057;-52
2021/06/08 09:02:02;;;;;;;21.27;12.00;;;;;;;19.38;33.72;100790.63;3587187;40;20044;-60
2021/06/08 09:04:30;;;;;;;4.53;2.28;;;;;;;19.74;36.63;100796.69;3585126;40;20032;-54
2021/06/08 09:06:57;;;;;;;3.22;1.30;;;;;;;19.92;36.75;100794.00;3587537;40;20048;-49
2021/06/08 09:09:25;;;;;;;3.15;1.55;;;;;;;19.81;33.63;100788.97;3587478;40;20076;-43
2021/06/08 09:11:52;;;;;;;8.07;4.30;;;;;;;19.77;36.21;100792.91;3595719;40;20048;-58
2021/06/08 09:14:20;;;;;;;3.28;1.55;;;;;;;19.60;33.69;100789.31;3596241;40;20310;-58
2021/06/08 09:16:48;;;;;;;3.20;1.30;;;;;;;19.65;33.48;100800.28;3596070;40;20055;-48
2021/06/08 09:19:15;;;;;;;8.80;2.80;;;;;;;19.98;33.27;100790.69;3595980;40;20059;-53
2021/06/08 09:21:54;;;;;;;8.45;3.03;;;;;;;20.32;37.76;100788.06;3586494;40;20132;-53
2021/06/08 09:24:24;;;;;;;3.75;1.50;;;;;;;20.00;32.34;100787.91;3596139;40;20052;-56
2021/06/08 09:26:54;;;;;;;4.47;1.20;;;;;;;20.08;33.22;100772.84;3595755;40;20040;-50
2021/06/08 09:29:35;;;;;;;4.15;1.23;;;;;;;20.16;34.85;100782.66;3595848;40;20336;-50
2021/06/08 09:32:19;;;;;;;5.20;1.95;;;;;;;20.52;35.62;100777.19;3595855;40;20097;-52
2021/06/08 09:35:00;;;;;;;4.18;1.40;;;;;;;20.26;33.14;100772.72;3595681;40;20040;-52
2021/06/08 09:37:33;;;;;;;5.07;1.58;;;;;;;20.48;32.60;100765.22;3596253;40;20625;-54
2021/06/08 09:40:02;;;;;;;6.03;2.58;;;;;;;20.86;35.79;100767.28;3595942;40;20399;-50
2021/06/08 09:42:30;;;;;;;2.97;1.20;;;;;;;20.62;30.21;100767.25;3584863;40;20068;-59
2021/06/08 09:45:19;;;;;;;4.22;1.58;;;;;;;20.97;32.46;100763.44;3587075;40;20133;-57
2021/06/08 09:47:58;;;;;;;2.45;1.40;;;;;;;21.11;31.54;100761.97;3586490;40;20052;-56
2021/06/08 09:50:38;;;;;;;4.15;1.70;;;;;;;21.46;32.63;100761.66;3587332;40;20670;-58
2021/06/08 09:53:41;;;;;;;2.72;1.45;;;;;;;21.84;30.58;100755.72;3588414;40;20126;-59
2021/06/08 09:56:10;;;;;;;2.95;1.30;;;;;;;22.02;31.13;100752.81;3562248;40;20086;-53
2021/06/08 09:58:43;;;;;;;3.17;1.20;;;;;;;22.43;31.17;100754.34;3588494;40;20055;-58
2021/06/08 10:01:20;;;;;;;2.17;1.10;;;;;;;22.57;31.66;100758.09;3595420;40;20044;-58
2021/06/08 10:03:53;;;;;;;3.50;1.40;;;;;;;22.67;30.83;100753.34;3586056;40;20062;-58
2021/06/08 10:06:35;;;;;;;;;;;;;;;22.67;29.21;100760.53;3588981;40;20053;-59
2021/06/08 10:09:06;;;;;;;6.88;3.30;;;;;;;23.44;30.11;100755.91;3588460;40;19964;-58
2021/06/08 10:11:35;;;;;;;12.10;6.90;;;;;;;23.39;29.83;100750.28;3588253;40;20059;-55
2021/06/08 10:14:18;;;;;;;2.78;1.50;;;;;;;23.55;29.54;100751.13;3588150;40;20393;-58
2021/06/08 10:16:58;;;;;;;2.15;1.13;;;;;;;23.62;31.04;100747.56;3586914;40;20401;-58
2021/06/08 10:19:27;;;;;;;3.13;1.10;;;;;;;24.26;29.97;100749.69;3585694;40;20057;-58
2021/06/08 10:21:55;;;;;;;3.95;1.25;;;;;;;23.45;26.45;100736.25;3588051;40;20052;-58
2021/06/08 10:24:26;;;;;;;3.72;1.20;;;;;;;23.21;27.79;100739.13;3594400;40;20056;-52
2021/06/08 10:26:56;;;;;;;3.92;1.60;;;;;;;22.55;26.36;100735.25;3588099;40;20052;-51
2021/06/08 10:29:27;;;;;;;1.98;1.15;;;;;;;23.44;29.25;100737.22;3588071;40;20071;-56
2021/06/08 10:31:57;;;;;;;2.63;1.00;;;;;;;23.80;26.89;100725.88;3588171;40;20057;-57
2021/06/08 10:34:37;;;;;;;2.58;1.40;;;;;;;24.36;27.66;100736.03;3586822;40;20404;-56
2021/06/08 10:37:05;;;;;;;4.03;1.25;;;;;;;23.67;26.56;100734.50;3588059;40;20048;-56
2021/06/08 10:39:34;;;;;;;4.25;1.17;;;;;;;24.43;28.39;100731.59;3587837;40;20044;-57
2021/06/08 10:42:02;;;;;;;32.90;20.73;;;;;;;24.20;28.11;100729.84;3588075;40;20055;-54
2021/06/08 10:44:31;;;;;;;7.63;2.72;;;;;;;24.43;25.93;100727.06;3587690;40;20407;-56
2021/06/08 10:47:06;;;;;;;4.22;1.30;;;;;;;24.10;24.99;100725.81;3588040;40;20064;-53
2021/06/08 10:49:39;;;;;;;3.50;1.60;;;;;;;24.53;28.03;100716.06;3587916;40;20052;-52
2021/06/08 10:52:09;;;;;;;2.25;1.38;;;;;;;24.41;24.93;100721.09;3587705;40;20363;-57
2021/06/08 10:54:38;;;;;;;2.22;1.20;;;;;;;24.79;27.90;100710.16;3587836;40;20052;-55
2021/06/08 10:57:16;;;;;;;3.05;1.05;;;;;;;24.96;27.83;100716.88;3588954;40;20077;-56
2021/06/08 10:59:49;;;;;;;3.38;1.10;;;;;;;24.89;26.41;100707.97;3596669;40;20036;-53
2021/06/08 11:02:43;;;;;;;122.97;76.13;;;;;;;25.24;26.25;100706.22;3597223;39;20342;-55
2021/06/08 11:05:12;;;;;;;8.10;4.25;;;;;;;24.59;26.37;100704.59;3586990;40;20092;-56
2021/06/08 11:07:42;;;;;;;3.55;1.13;;;;;;;23.74;24.91;100710.59;3578510;40;20048;-53
2021/06/08 11:10:25;;;;;;;2.63;1.20;;;;;;;24.78;25.62;100701.28;3588004;40;20067;-57
2021/06/08 11:13:11;;;;;;;2.15;1.20;;;;;;;24.72;23.87;100699.38;3578488;40;20092;-49
2021/06/08 11:15:50;;;;;;;2.13;1.20;;;;;;;23.66;23.19;100698.16;3588036;40;20296;-56
2021/06/08 11:18:21;;;;;;;2.45;1.10;;;;;;;23.99;26.22;100700.41;3586456;40;20063;-58
2021/06/08 11:21:12;;;;;;;3.63;1.52;;;;;;;24.93;26.23;100689.69;3588002;40;20056;-58
2021/06/08 11:23:44;;;;;;;3.15;1.00;;;;;;;25.56;25.10;100687.06;3582379;40;20052;-58
2021/06/08 11:26:17;;;;;;;1.98;1.00;;;;;;;25.66;24.41;100688.34;3585893;40;20308;-58
2021/06/08 11:28:52;;;;;;;2.25;1.30;;;;;;;24.72;23.87;100679.81;3587766;40;20145;-58
2021/06/08 11:31:24;;;;;;;1.73;1.02;;;;;;;24.94;23.30;100683.31;3585877;40;20370;-59
2021/06/08 11:34:04;;;;;;;2.17;1.17;;;;;;;25.40;22.21;100672.97;3586759;40;20068;-58
2021/06/08 11:36:34;;;;;;;4.50;1.30;;;;;;;24.52;21.01;100683.13;3596376;40;20101;-55
2021/06/08 11:39:31;;;;;;;3.60;1.23;;;;;;;25.00;23.18;100679.84;3596756;40;20406;-57
2021/06/08 11:42:01;;;;;;;4.05;1.25;;;;;;;25.43;24.12;100672.56;3583009;40;20052;-58
2021/06/08 11:44:29;;;;;;;2.35;1.23;;;;;;;25.43;23.45;100674.41;3596908;40;20044;-56